.
WxDataArchive / Data Records for 2010-03-09
2010-03-08 March 2010 2010-03-10

Data Records for Tuesday, 09 March 2010

Time	Temp	Chill	HIndex	Humid	Dewpt	 Wind 	HiWind	WindDir	Rain 	Barom 
-----	----	-----	------	-----	-----	------	------	-------	-----	----- 
00:00	33.7	33.7	33.7	92	31.6	0	0	---	0.00	30.033 
00:05	33.4	33.4	33.4	92	31.3	0	0	---	0.00	30.033 
00:10	33.2	33.2	33.2	92	31.1	0	0	---	0.00	30.033 
00:15	33.1	33.1	33.1	92	31.0	0	0	---	0.00	30.032 
00:20	32.9	32.9	32.9	92	30.8	0	0	---	0.00	30.032 
00:25	32.9	32.9	32.9	92	30.8	0	0	---	0.00	30.032 
00:30	32.8	32.8	32.8	92	30.7	0	0	---	0.00	30.031 
00:35	32.7	32.7	32.7	92	30.6	0	0	---	0.00	30.031 
00:40	32.5	32.5	32.5	92	30.4	0	0	---	0.00	30.031 
00:45	32.4	32.4	32.4	92	30.3	0	0	---	0.00	30.021 
00:50	32.4	32.4	32.4	92	30.3	0	0	---	0.00	30.021 
00:55	32.4	32.4	32.4	92	30.3	0	0	---	0.00	30.021 
01:00	32.2	32.2	32.2	92	30.1	0	0	---	0.00	30.019 
01:05	32.2	32.2	32.2	93	30.4	0	0	---	0.00	30.019 
01:10	32.2	32.2	32.2	93	30.4	0	0	---	0.00	30.019 
01:15	32.1	32.1	32.1	93	30.3	0	0	---	0.00	30.013 
01:20	32.1	32.1	32.1	93	30.3	0	0	---	0.00	30.013 
01:25	31.9	31.9	31.9	93	30.1	0	0	---	0.00	30.013 
01:30	31.8	31.8	31.8	93	30.0	0	0	---	0.00	30.014 
01:35	31.6	31.6	31.6	93	29.8	0	0	---	0.00	30.014 
01:40	31.5	31.5	31.5	93	29.7	0	0	---	0.00	30.014 
01:45	31.3	31.3	31.3	93	29.5	0	0	---	0.00	30.016 
01:50	31.2	31.2	31.2	93	29.4	0	0	---	0.00	30.016 
01:55	31.0	31.0	31.0	93	29.2	0	0	---	0.00	30.016 
02:00	31.0	31.0	31.0	93	29.2	0	0	---	0.00	30.009 
02:05	30.9	30.9	30.9	93	29.1	0	0	---	0.00	30.009 
02:10	30.9	30.9	30.9	93	29.1	0	0	---	0.00	30.009 
02:15	30.7	30.7	30.7	93	28.9	0	0	---	0.00	30.006 
02:20	30.6	30.6	30.6	93	28.8	0	0	---	0.00	30.006 
02:25	30.4	30.4	30.4	93	28.6	0	0	---	0.00	30.006 
02:30	30.3	30.3	30.3	93	28.5	0	0	---	0.00	30.003 
02:35	30.3	30.3	30.3	93	28.5	0	0	---	0.00	30.003 
02:40	30.1	30.1	30.1	93	28.3	0	0	---	0.00	30.003 
02:45	30.0	30.0	30.0	93	28.2	0	0	---	0.00	29.995 
02:50	29.8	29.8	29.8	93	28.0	0	0	---	0.00	29.995 
02:55	29.8	29.8	29.8	93	28.0	0	0	---	0.00	29.995 
03:00	29.7	29.7	29.7	94	28.2	0	0	---	0.00	29.990 
03:05	29.7	29.7	29.7	94	28.2	0	0	---	0.00	29.990 
03:10	29.5	29.5	29.5	94	28.0	0	0	---	0.00	29.990 
03:15	29.5	29.5	29.5	94	28.0	0	0	---	0.00	29.988 
03:20	29.4	29.4	29.4	94	27.9	0	0	---	0.00	29.988 
03:25	29.4	29.4	29.4	94	27.9	0	0	---	0.00	29.988 
03:30	29.3	29.3	29.3	94	27.8	0	0	---	0.00	29.981 
03:35	29.4	29.4	29.4	94	27.9	0	1	135	0.00	29.981 
03:40	29.5	29.5	29.5	94	28.0	0	0	---	0.00	29.981 
03:45	29.5	29.5	29.5	94	28.0	0	0	---	0.00	29.975 
03:50	29.7	29.7	29.7	94	28.2	0	0	---	0.00	29.975 
03:55	29.8	29.8	29.8	94	28.3	0	0	---	0.00	29.975 
04:00	29.8	29.8	29.8	94	28.3	0	0	---	0.00	29.973 
04:05	29.7	29.7	29.7	94	28.2	0	0	---	0.00	29.973 
04:10	29.5	29.5	29.5	94	28.0	0	0	---	0.00	29.973 
04:15	29.4	29.4	29.4	94	27.9	0	0	---	0.00	29.980 
04:20	29.4	29.4	29.4	94	27.9	0	0	---	0.00	29.980 
04:25	29.3	29.3	29.3	94	27.8	0	0	---	0.00	29.980 
04:30	29.0	29.0	29.0	94	27.5	0	0	---	0.00	29.983 
04:35	28.8	28.8	28.8	94	27.3	0	0	---	0.00	29.983 
04:40	28.7	28.7	28.7	94	27.2	0	0	---	0.00	29.983 
04:45	28.5	28.5	28.5	94	27.0	0	0	---	0.00	29.989 
04:50	28.4	28.4	28.4	94	26.9	0	0	---	0.00	29.989 
04:55	28.2	28.2	28.2	94	26.7	0	0	---	0.00	29.989 
05:00	28.2	28.2	28.2	94	26.7	0	0	---	0.00	29.990 
05:05	28.2	28.2	28.2	94	26.7	0	0	---	0.00	29.990 
05:10	28.1	28.1	28.1	94	26.6	0	0	---	0.00	29.990 
05:15	28.1	28.1	28.1	94	26.6	0	0	---	0.00	29.992 
05:20	27.9	27.9	27.9	94	26.4	0	0	---	0.00	29.992 
05:25	27.8	27.8	27.8	94	26.3	0	0	---	0.00	29.992 
05:30	27.8	27.8	27.8	94	26.3	0	0	---	0.00	29.994 
05:35	27.8	27.8	27.8	94	26.3	0	0	---	0.00	29.994 
05:40	27.6	27.6	27.6	95	26.4	0	0	---	0.00	29.994 
05:45	27.6	27.6	27.6	95	26.4	0	0	---	0.00	29.993 
05:50	27.6	27.6	27.6	95	26.4	0	0	---	0.00	29.993 
05:55	27.8	27.8	27.8	95	26.6	0	0	---	0.00	29.993 
06:00	28.1	28.1	28.1	95	26.9	0	0	---	0.00	29.993 
06:05	28.4	28.4	28.4	95	27.2	0	0	---	0.00	29.993 
06:10	28.4	28.4	28.4	95	27.2	0	0	---	0.00	29.993 
06:15	28.4	28.4	28.4	95	27.2	0	0	---	0.00	29.999 
06:20	28.2	28.2	28.2	95	27.0	0	0	---	0.00	29.999 
06:25	28.4	28.4	28.4	95	27.2	0	0	---	0.00	29.999 
06:30	28.5	28.5	28.5	95	27.3	0	2	135	0.00	29.996 
06:35	29.0	29.0	29.0	95	27.8	0	2	135	0.00	29.996 
06:40	29.3	29.3	29.3	95	28.0	0	2	135	0.00	29.996 
06:45	29.4	29.4	29.4	95	28.1	0	0	---	0.00	29.994 
06:50	29.4	29.4	29.4	95	28.1	0	1	135	0.00	29.994 
06:55	29.5	29.5	29.5	95	28.2	0	1	135	0.00	29.994 
07:00	29.5	29.5	29.5	95	28.2	0	2	135	0.00	29.979 
07:05	30.0	30.0	30.0	95	28.7	1	3	135	0.00	29.979 
07:10	30.1	30.1	30.1	95	28.8	0	2	135	0.00	29.979 
07:15	30.4	30.4	30.4	96	29.4	0	2	135	0.00	29.987 
07:20	30.6	30.6	30.6	96	29.6	1	2	135	0.00	29.987 
07:25	30.9	30.9	30.9	96	29.9	1	3	135	0.00	29.987 
07:30	31.2	31.2	31.2	96	30.2	0	3	112	0.00	29.983 
07:35	31.3	31.3	31.3	96	30.3	0	1	112	0.00	29.983 
07:40	31.5	31.5	31.5	96	30.5	0	1	112	0.00	29.983 
07:45	31.6	31.6	31.6	96	30.6	0	1	112	0.00	29.995 
07:50	31.6	31.6	31.6	96	30.6	0	0	---	0.00	29.995 
07:55	31.8	31.8	31.8	96	30.8	0	0	---	0.00	29.995 
08:00	31.6	31.6	31.6	96	30.6	0	0	---	0.00	30.001 
08:05	31.8	31.8	31.8	96	30.8	0	0	---	0.00	30.001 
08:10	32.2	32.2	32.2	96	31.2	0	0	---	0.00	30.001 
08:15	32.7	32.7	32.7	96	31.7	0	2	45	0.00	30.010 
08:20	33.1	33.1	33.1	96	32.1	0	3	45	0.00	30.010 
08:25	33.4	33.4	33.4	96	32.4	1	3	22	0.00	30.010 
08:30	33.8	33.8	33.8	96	32.8	1	3	112	0.00	30.003 
08:35	34.3	34.3	34.3	96	33.3	1	3	112	0.00	30.003 
08:40	34.6	34.6	34.6	96	33.6	2	4	90	0.00	30.003 
08:45	35.2	35.2	35.2	96	34.2	2	4	90	0.00	29.998 
08:50	35.6	35.6	35.6	95	34.3	3	5	90	0.00	29.998 
08:55	36.0	36.0	36.0	95	34.7	1	3	90	0.00	29.998 
09:00	36.3	36.3	36.3	94	34.7	2	4	90	0.00	29.994 
09:05	36.6	36.6	36.6	93	34.8	3	5	112	0.00	29.994 
09:10	37.3	37.3	37.3	92	35.2	3	6	112	0.00	29.994 
09:15	37.9	37.9	37.9	92	35.8	3	5	112	0.00	29.996 
09:20	38.6	38.6	38.6	91	36.2	2	5	90	0.00	29.996 
09:25	39.1	39.1	39.1	89	36.1	3	5	112	0.00	29.996 
09:30	39.6	39.6	39.6	88	36.3	3	5	90	0.00	29.991 
09:35	40.3	40.3	40.3	87	36.7	2	4	112	0.00	29.991 
09:40	41.1	41.1	41.1	85	36.9	2	4	112	0.00	29.991 
09:45	41.9	41.9	41.9	83	37.1	3	7	90	0.00	29.990 
09:50	42.6	42.6	42.6	82	37.5	2	6	112	0.00	29.990 
09:55	43.5	43.5	43.5	79	37.4	2	5	90	0.00	29.990 
10:00	44.2	44.2	44.2	77	37.5	2	5	112	0.00	29.985 
10:05	44.6	44.6	44.6	75	37.2	3	5	112	0.00	29.985 
10:10	45.1	45.1	45.1	74	37.3	3	5	90	0.00	29.985 
10:15	45.5	45.5	45.5	74	37.7	2	4	112	0.00	29.986 
10:20	46.0	44.2	46.0	72	37.5	4	7	112	0.00	29.986 
10:25	46.5	46.5	46.5	71	37.6	2	5	90	0.00	29.986 
10:30	47.1	47.1	47.1	70	37.8	3	6	112	0.00	29.984 
10:35	47.7	47.7	47.7	69	38.0	3	7	112	0.00	29.984 
10:40	48.2	48.2	48.2	68	38.1	3	9	112	0.00	29.984 
10:45	48.8	48.8	48.8	67	38.3	1	5	112	0.00	29.976 
10:50	49.5	49.5	49.5	66	38.6	3	6	112	0.00	29.976 
10:55	49.8	48.6	49.8	65	38.5	4	10	112	0.00	29.976 
11:00	49.8	48.6	49.8	65	38.5	4	7	90	0.00	29.973 
11:05	50.2	50.2	50.2	64	38.5	3	6	112	0.00	29.973 
11:10	50.7	50.7	50.7	64	39.0	3	7	112	0.00	29.973 
11:15	51.1	51.1	51.1	65	39.7	3	6	112	0.00	29.973 
11:20	51.6	51.6	51.6	64	39.8	3	9	112	0.00	29.973 
11:25	52.2	52.2	52.2	62	39.6	2	6	90	0.00	29.973 
11:30	52.6	52.6	52.6	63	40.4	2	5	112	0.00	29.970 
11:35	53.2	53.2	53.2	61	40.1	1	6	112	0.00	29.970 
11:40	53.8	53.8	53.8	60	40.2	1	4	112	0.00	29.970 
11:45	54.5	54.5	54.5	59	40.5	2	4	112	0.00	29.967 
11:50	54.5	54.5	54.5	58	40.0	4	10	112	0.00	29.967 
11:55	54.5	54.5	54.5	59	40.5	4	7	112	0.00	29.967 
12:00	55.0	55.0	55.0	57	40.0	3	9	112	0.00	29.958 
12:05	55.6	55.6	55.6	57	40.6	2	6	112	0.00	29.958 
12:10	56.0	56.0	56.0	55	40.1	3	6	112	0.00	29.958 
12:15	56.5	56.5	56.5	55	40.5	3	7	112	0.00	29.953 
12:20	56.9	56.9	56.9	54	40.4	3	7	90	0.00	29.953 
12:25	57.0	57.0	57.0	54	40.5	3	9	90	0.00	29.953 
12:30	57.2	57.2	57.2	54	40.7	3	7	90	0.00	29.950 
12:35	57.6	57.6	57.6	54	41.1	3	9	112	0.00	29.950 
12:40	58.0	58.0	58.0	54	41.4	3	7	90	0.00	29.950 
12:45	57.8	57.8	57.8	53	40.8	4	11	112	0.00	29.942 
12:50	57.8	57.8	57.8	54	41.3	3	6	90	0.00	29.942 
12:55	57.8	57.8	57.8	52	40.3	4	9	112	0.00	29.942 
13:00	58.1	58.1	58.1	52	40.6	4	9	112	0.00	29.934 
13:05	58.1	58.1	58.1	52	40.6	3	9	90	0.00	29.934 
13:10	58.4	58.4	58.4	53	41.3	2	5	112	0.00	29.934 
13:15	58.9	58.9	58.9	52	41.3	2	6	112	0.00	29.926 
13:20	58.7	58.7	58.7	51	40.6	5	13	112	0.00	29.926 
13:25	58.9	58.9	58.9	50	40.3	3	9	90	0.00	29.926 
13:30	59.0	59.0	59.0	51	40.9	2	9	112	0.00	29.918 
13:35	59.3	59.3	59.3	50	40.7	3	8	112	0.00	29.918 
13:40	59.3	59.3	59.3	50	40.7	2	5	112	0.00	29.918 
13:45	59.2	59.2	59.2	50	40.6	2	6	112	0.00	29.907 
13:50	59.0	59.0	59.0	51	40.9	2	6	112	0.00	29.907 
13:55	59.0	59.0	59.0	51	40.9	3	6	112	0.00	29.907 
14:00	59.0	59.0	59.0	51	40.9	3	6	112	0.00	29.903 
14:05	59.2	59.2	59.2	51	41.1	2	5	90	0.00	29.903 
14:10	59.3	59.3	59.3	50	40.7	2	7	90	0.00	29.903 
14:15	59.6	59.6	59.6	50	40.9	2	6	90	0.00	29.895 
14:20	59.8	59.8	59.8	48	40.1	3	6	90	0.00	29.895 
14:25	59.8	59.8	59.8	50	41.1	3	7	90	0.00	29.895 
14:30	59.8	59.8	59.8	49	40.6	4	10	90	0.00	29.888 
14:35	59.9	59.9	59.9	50	41.2	3	8	90	0.00	29.888 
14:40	60.1	60.1	60.1	49	40.9	2	5	68	0.00	29.888 
14:45	60.1	60.1	60.1	49	40.9	4	8	112	0.00	29.885 
14:50	60.1	60.1	60.1	48	40.3	2	7	112	0.00	29.885 
14:55	60.4	60.4	60.4	48	40.6	3	11	112	0.00	29.885 
15:00	60.5	60.5	60.5	49	41.2	3	9	90	0.00	29.877 
15:05	60.5	60.5	60.5	48	40.7	4	9	112	0.00	29.877 
15:10	60.5	60.5	60.5	48	40.7	3	7	112	0.00	29.877 
15:15	60.4	60.4	60.4	48	40.6	2	7	90	0.00	29.874 
15:20	60.1	60.1	60.1	48	40.3	2	5	90	0.00	29.874 
15:25	59.9	59.9	59.9	50	41.2	2	10	90	0.00	29.874 
15:30	59.6	59.6	59.6	50	40.9	3	7	68	0.00	29.871 
15:35	59.5	59.5	59.5	51	41.4	1	4	135	0.00	29.871 
15:40	59.3	59.3	59.3	52	41.7	3	6	90	0.00	29.871 
15:45	59.2	59.2	59.2	52	41.6	4	9	112	0.00	29.868 
15:50	59.2	59.2	59.2	52	41.6	3	7	112	0.00	29.868 
15:55	59.0	59.0	59.0	52	41.4	3	7	90	0.00	29.868 
16:00	59.0	59.0	59.0	52	41.4	2	7	112	0.00	29.869 
16:05	59.0	59.0	59.0	52	41.4	1	5	112	0.00	29.869 
16:10	58.9	58.9	58.9	52	41.3	3	6	112	0.00	29.869 
16:15	58.9	58.9	58.9	53	41.8	3	6	112	0.00	29.861 
16:20	58.7	58.7	58.7	54	42.1	2	5	112	0.00	29.861 
16:25	58.6	58.6	58.6	54	42.0	2	5	112	0.00	29.861 
16:30	58.6	58.6	58.6	54	42.0	3	7	112	0.00	29.861 
16:35	58.4	58.4	58.4	54	41.8	3	6	112	0.00	29.861 
16:40	58.1	58.1	58.1	56	42.5	2	5	90	0.00	29.861 
16:45	58.0	58.0	58.0	56	42.4	2	5	90	0.00	29.859 
16:50	57.8	57.8	57.8	57	42.7	3	6	112	0.00	29.859 
16:55	57.6	57.6	57.6	57	42.5	3	6	112	0.00	29.859 
17:00	57.5	57.5	57.5	57	42.4	2	3	112	0.00	29.860 
17:05	57.5	57.5	57.5	58	42.8	2	6	112	0.00	29.860 
17:10	57.3	57.3	57.3	59	43.1	1	4	112	0.00	29.860 
17:15	57.2	57.2	57.2	59	43.0	1	3	112	0.00	29.865 
17:20	57.0	57.0	57.0	59	42.8	1	3	112	0.00	29.865 
17:25	56.9	56.9	56.9	59	42.7	2	5	112	0.00	29.865 
17:30	56.7	56.7	56.7	58	42.1	2	8	68	0.00	29.872 
17:35	56.6	56.6	56.6	58	42.0	1	4	90	0.00	29.872 
17:40	56.5	56.5	56.5	59	42.3	0	2	90	0.00	29.872 
17:45	56.2	56.2	56.2	60	42.5	1	2	90	0.00	29.875 
17:50	55.9	55.9	55.9	60	42.2	1	4	90	0.00	29.875 
17:55	55.7	55.7	55.7	60	42.0	1	5	112	0.00	29.875 
18:00	55.6	55.6	55.6	60	41.9	1	4	112	0.00	29.872 
18:05	55.4	55.4	55.4	61	42.2	3	5	112	0.00	29.872 
18:10	55.3	55.3	55.3	61	42.1	2	5	112	0.00	29.872 
18:15	55.1	55.1	55.1	63	42.7	2	5	112	0.00	29.863 
18:20	54.7	54.7	54.7	66	43.6	3	7	90	0.00	29.863 
18:25	53.9	53.9	53.9	68	43.6	3	7	90	0.00	29.863 
18:30	53.5	53.5	53.5	68	43.2	1	2	90	0.00	29.871 
18:35	53.2	53.2	53.2	68	42.9	2	6	90	0.00	29.871 
18:40	52.9	52.9	52.9	67	42.2	3	5	90	0.00	29.871 
18:45	52.8	52.8	52.8	67	42.1	3	7	112	0.00	29.866 
18:50	52.6	52.6	52.6	67	42.0	3	5	112	0.00	29.866 
18:55	52.5	52.5	52.5	68	42.2	2	5	112	0.00	29.866 
19:00	52.3	52.3	52.3	68	42.1	2	5	90	0.00	29.865 
19:05	52.2	52.2	52.2	67	41.6	2	5	90	0.00	29.865 
19:10	52.0	52.0	52.0	67	41.4	2	5	112	0.00	29.865 
19:15	51.9	51.9	51.9	67	41.3	2	4	112	0.00	29.869 
19:20	51.7	51.7	51.7	67	41.1	1	4	90	0.00	29.869 
19:25	51.6	51.6	51.6	68	41.4	2	5	112	0.00	29.869 
19:30	51.4	51.4	51.4	68	41.2	1	3	112	0.00	29.876 
19:35	51.3	51.3	51.3	68	41.1	2	3	90	0.00	29.876 
19:40	51.1	51.1	51.1	69	41.3	1	3	112	0.00	29.876 
19:45	51.0	51.0	51.0	70	41.6	1	3	112	0.00	29.878 
19:50	50.8	50.8	50.8	71	41.7	1	2	112	0.00	29.878 
19:55	50.5	50.5	50.5	72	41.8	1	2	112	0.00	29.878 
20:00	50.4	50.4	50.4	72	41.7	1	3	112	0.00	29.874 
20:05	50.4	50.4	50.4	72	41.7	1	3	112	0.00	29.874 
20:10	50.2	50.2	50.2	73	41.9	1	3	112	0.00	29.874 
20:15	50.1	50.1	50.1	73	41.8	1	4	112	0.00	29.866 
20:20	50.1	50.1	50.1	72	41.4	1	3	90	0.00	29.866 
20:25	49.9	49.9	49.9	73	41.6	1	3	90	0.00	29.866 
20:30	49.9	49.9	49.9	72	41.2	1	3	68	0.00	29.862 
20:35	49.9	49.9	49.9	73	41.6	1	2	68	0.00	29.862 
20:40	49.8	49.8	49.8	73	41.5	1	2	68	0.00	29.862 
20:45	49.6	49.6	49.6	74	41.7	1	3	68	0.00	29.860 
20:50	49.5	49.5	49.5	75	41.9	1	4	68	0.00	29.860 
20:55	49.4	49.4	49.4	75	41.8	1	4	112	0.00	29.860 
21:00	49.2	49.2	49.2	76	42.0	1	3	112	0.00	29.862 
21:05	49.2	49.2	49.2	77	42.3	1	4	112	0.00	29.862 
21:10	49.1	49.1	49.1	77	42.2	1	3	112	0.00	29.862 
21:15	49.1	49.1	49.1	77	42.2	1	2	112	0.00	29.855 
21:20	48.9	48.9	48.9	79	42.7	0	2	112	0.00	29.855 
21:25	48.8	48.8	48.8	79	42.6	1	2	112	0.00	29.855 
21:30	48.6	48.6	48.6	80	42.7	1	3	112	0.00	29.856 
21:35	48.3	48.3	48.3	81	42.7	1	3	112	0.00	29.856 
21:40	48.2	48.2	48.2	82	43.0	2	3	112	0.00	29.856 
21:45	47.9	47.9	47.9	84	43.3	2	4	68	0.00	29.856 
21:50	47.7	47.7	47.7	84	43.1	1	3	68	0.01	29.856 
21:55	47.4	47.4	47.4	85	43.1	2	4	112	0.00	29.856 
22:00	47.3	47.3	47.3	86	43.3	1	3	112	0.00	29.856 
22:05	47.1	47.1	47.1	86	43.1	1	4	90	0.00	29.856 
22:10	47.0	47.0	47.0	87	43.3	1	5	90	0.00	29.856 
22:15	46.8	46.8	46.8	87	43.1	2	6	112	0.00	29.835 
22:20	46.8	46.8	46.8	87	43.1	3	6	90	0.00	29.835 
22:25	46.8	46.8	46.8	87	43.1	3	7	112	0.00	29.835 
22:30	46.8	46.8	46.8	88	43.4	3	6	90	0.00	29.830 
22:35	46.7	46.7	46.7	88	43.3	3	7	90	0.00	29.830 
22:40	46.7	46.7	46.7	88	43.3	2	5	90	0.00	29.830 
22:45	46.5	46.5	46.5	88	43.1	2	4	112	0.00	29.821 
22:50	46.5	46.5	46.5	88	43.1	2	6	90	0.00	29.821 
22:55	46.5	46.5	46.5	89	43.4	2	6	90	0.00	29.821 
23:00	46.4	46.4	46.4	88	43.0	2	4	90	0.00	29.819 
23:05	46.4	46.4	46.4	88	43.0	2	7	90	0.00	29.819 
23:10	46.5	46.5	46.5	88	43.1	3	5	90	0.00	29.819 
23:15	46.5	46.5	46.5	88	43.1	3	8	90	0.00	29.815 
23:20	46.5	46.5	46.5	88	43.1	2	4	90	0.00	29.815 
23:25	46.5	46.5	46.5	88	43.1	2	3	90	0.00	29.815 
23:30	46.5	46.5	46.5	88	43.1	1	4	90	0.00	29.815 
23:35	46.5	46.5	46.5	87	42.8	2	5	90	0.00	29.815 
23:40	46.7	46.7	46.7	87	43.0	2	4	90	0.00	29.815 
23:45	46.7	46.7	46.7	86	42.7	2	4	90	0.00	29.813 
23:50	46.7	46.7	46.7	86	42.7	1	3	90	0.00	29.813 
23:55	46.7	46.7	46.7	86	42.7	1	3	90	0.00	29.813 

CoCoRaHS
IN-AL-39
A2 Web Hosting
Creative Commons License
GoDaddy
search engine by freefind advanced

loaded 2018-11-22 05:37:48 • last modified 2010-11-18 10:43:29
Privacy PolicyDisclaimer
• wx.awcolley.com is powered by PmWiki v.2002016 •
• all content (unless otherwise noted) © 2018 A W Colley